Time;durP1;ratioP1;P1;durP2;ratioP2;P2;SDS_P1;SDS_P2;PMS_P1;PMS_P2;Temp;Humidity;BMP_temperature;BMP_pressure;BME280_temperature;BME280_humidity;BME280_pressure;Samples;Min_cycle;Max_cycle;Signal;HPM_P1;HPM_P2
2021/03/19 00:01:17;;;;;;;12.27;2.97;;;2.00;99.90;;;;;;5000379;28;20594;-66
2021/03/19 00:03:43;;;;;;;9.63;2.40;;;1.90;99.90;;;;;;4997043;28;20043;-66
2021/03/19 00:06:09;;;;;;;9.57;2.47;;;2.00;99.90;;;;;;5001280;28;20046;-66
2021/03/19 00:08:34;;;;;;;8.60;2.25;;;2.00;99.90;;;;;;4997405;28;20072;-66
2021/03/19 00:11:01;;;;;;;11.23;2.40;;;1.90;99.90;;;;;;4996994;28;20069;-66
2021/03/19 00:13:27;;;;;;;12.80;2.47;;;1.90;99.90;;;;;;4996006;28;21564;-66
2021/03/19 00:15:53;;;;;;;6.70;2.55;;;1.80;99.90;;;;;;4997531;28;20042;-66
2021/03/19 00:18:19;;;;;;;7.68;2.63;;;1.80;99.90;;;;;;4998223;28;20038;-66
2021/03/19 00:20:46;;;;;;;13.98;4.30;;;1.90;99.90;;;;;;4999709;28;21299;-66
2021/03/19 00:23:12;;;;;;;9.40;3.20;;;2.10;99.90;;;;;;4996912;28;20112;-66
2021/03/19 00:25:39;;;;;;;9.35;3.08;;;1.80;99.90;;;;;;4998040;28;20041;-66
2021/03/19 00:28:06;;;;;;;6.57;2.88;;;1.80;99.90;;;;;;4982655;28;20034;-66
2021/03/19 00:30:33;;;;;;;10.98;3.28;;;1.80;99.90;;;;;;4999196;28;20042;-66
2021/03/19 00:33:01;;;;;;;11.07;2.88;;;1.80;99.90;;;;;;4998083;28;20149;-66
2021/03/19 00:35:27;;;;;;;12.98;3.20;;;1.80;99.90;;;;;;4998744;28;20049;-66
2021/03/19 00:37:53;;;;;;;8.13;2.90;;;1.80;99.90;;;;;;4997949;28;20040;-66
2021/03/19 00:40:19;;;;;;;17.63;3.40;;;1.90;99.90;;;;;;4997280;28;20400;-66
2021/03/19 00:42:44;;;;;;;13.73;3.03;;;1.80;99.90;;;;;;4999098;28;20042;-66
2021/03/19 00:45:13;;;;;;;8.20;1.90;;;1.80;99.90;;;;;;4995041;28;20168;-66
2021/03/19 00:47:39;;;;;;;7.97;2.55;;;1.80;99.90;;;;;;4984966;28;20438;-66
2021/03/19 00:50:08;;;;;;;7.78;2.42;;;1.80;99.90;;;;;;4996713;28;20112;-66
2021/03/19 00:52:34;;;;;;;9.85;2.83;;;1.90;99.90;;;;;;4994709;28;20669;-66
2021/03/19 00:55:00;;;;;;;8.52;2.38;;;1.80;99.90;;;;;;4993909;28;20035;-65
2021/03/19 00:57:26;;;;;;;8.65;2.30;;;1.80;99.90;;;;;;4997793;28;20512;-66
2021/03/19 00:59:51;;;;;;;9.13;2.17;;;1.80;99.90;;;;;;4998131;28;20066;-66
2021/03/19 01:02:17;;;;;;;10.23;2.63;;;1.90;99.90;;;;;;4995001;28;20121;-66
2021/03/19 01:04:43;;;;;;;9.48;2.63;;;1.80;99.90;;;;;;4991638;28;20066;-66
2021/03/19 01:07:10;;;;;;;12.68;2.75;;;1.70;99.90;;;;;;4997142;28;20076;-66
2021/03/19 01:09:36;;;;;;;8.02;2.08;;;1.80;99.90;;;;;;4998279;28;20049;-66
2021/03/19 01:12:02;;;;;;;7.65;2.38;;;1.80;99.90;;;;;;4994875;28;20042;-66
2021/03/19 01:14:28;;;;;;;5.57;2.10;;;1.80;99.90;;;;;;4998280;28;20045;-66
2021/03/19 01:16:54;;;;;;;11.02;2.63;;;1.80;99.90;;;;;;4998065;28;20038;-66
2021/03/19 01:19:19;;;;;;;10.45;2.60;;;2.00;99.90;;;;;;4997739;28;20045;-66
2021/03/19 01:21:45;;;;;;;10.90;2.20;;;1.80;99.90;;;;;;4997510;28;20046;-66
2021/03/19 01:24:11;;;;;;;5.72;2.40;;;1.80;99.90;;;;;;4996739;28;20041;-65
2021/03/19 01:26:37;;;;;;;9.52;2.17;;;1.80;99.90;;;;;;4997107;28;20073;-66
2021/03/19 01:29:05;;;;;;;11.48;2.15;;;1.80;99.90;;;;;;4998250;28;20491;-65
2021/03/19 01:31:31;;;;;;;8.10;2.08;;;1.80;99.90;;;;;;4996776;28;21477;-66
2021/03/19 01:33:57;;;;;;;7.53;2.58;;;1.80;99.90;;;;;;4998503;28;20045;-66
2021/03/19 01:36:23;;;;;;;7.43;2.78;;;1.80;99.90;;;;;;4998889;28;20176;-66
2021/03/19 01:38:48;;;;;;;10.98;2.13;;;1.80;99.90;;;;;;4979036;28;20488;-66
2021/03/19 01:41:14;;;;;;;5.80;2.03;;;1.80;99.90;;;;;;4998006;28;20042;-66
2021/03/19 01:43:46;;;;;;;5.13;1.90;;;1.80;99.90;;;;;;4996575;28;21506;-66
2021/03/19 01:46:50;;;;;;;8.63;2.17;;;1.80;99.90;;;;;;4996967;28;20211;-65
2021/03/19 01:49:53;;;;;;;13.13;2.80;;;1.80;99.90;;;;;;4997602;28;20053;-65
2021/03/19 01:52:56;;;;;;;11.60;2.40;;;1.80;99.90;;;;;;4995826;28;20139;-65
2021/03/19 01:56:10;;;;;;;10.63;2.05;;;1.80;99.90;;;;;;4996034;28;20053;-66
2021/03/19 01:59:13;;;;;;;8.35;1.98;;;1.80;99.90;;;;;;4944927;28;20107;-66
2021/03/19 02:02:16;;;;;;;9.88;2.17;;;1.80;99.90;;;;;;4998436;28;20088;-66
2021/03/19 02:05:21;;;;;;;24.33;2.97;;;1.80;99.90;;;;;;4998144;28;20041;-66
2021/03/19 02:08:24;;;;;;;9.68;2.00;;;1.80;99.90;;;;;;4996784;28;20045;-66
2021/03/19 02:11:27;;;;;;;12.38;2.38;;;1.80;99.90;;;;;;4996929;28;20096;-66
2021/03/19 02:14:31;;;;;;;12.75;2.25;;;1.80;99.90;;;;;;4998453;28;20097;-66
2021/03/19 02:17:35;;;;;;;6.75;2.47;;;1.70;99.90;;;;;;4999499;28;20440;-66
2021/03/19 02:20:38;;;;;;;8.27;2.85;;;1.70;99.90;;;;;;4983455;28;20073;-66
2021/03/19 02:23:41;;;;;;;8.07;2.10;;;1.70;99.90;;;;;;4998775;28;20089;-66
2021/03/19 02:26:45;;;;;;;9.13;2.25;;;1.70;99.90;;;;;;4997797;28;20046;-66
2021/03/19 02:29:49;;;;;;;7.03;2.13;;;1.60;99.90;;;;;;5002406;28;20033;-66
2021/03/19 02:32:18;;;;;;;14.20;3.63;;;1.60;99.90;;;;;;4998081;28;20552;-66
2021/03/19 02:35:07;;;;;;;10.60;2.45;;;1.60;99.90;;;;;;5000514;28;20045;-65
2021/03/19 02:37:35;;;;;;;15.32;2.40;;;1.60;99.90;;;;;;4999888;28;20053;-65
2021/03/19 02:40:02;;;;;;;11.98;4.13;;;1.60;99.90;;;;;;5000124;28;20533;-66
2021/03/19 02:42:30;;;;;;;8.85;2.10;;;1.60;99.90;;;;;;4998972;28;20038;-66
2021/03/19 02:44:57;;;;;;;7.22;2.47;;;1.60;99.90;;;;;;5000459;28;20045;-65
2021/03/19 02:47:23;;;;;;;10.45;2.70;;;1.60;99.90;;;;;;4999062;28;20034;-66
2021/03/19 02:49:50;;;;;;;16.48;2.90;;;1.60;99.90;;;;;;5000593;28;20033;-66
2021/03/19 02:52:21;;;;;;;9.93;2.33;;;1.50;99.90;;;;;;4999154;28;20046;-66
2021/03/19 02:54:47;;;;;;;8.30;2.60;;;1.60;99.90;;;;;;4995935;28;20037;-65
2021/03/19 02:57:13;;;;;;;14.85;2.85;;;1.60;99.90;;;;;;4997979;28;20168;-66
2021/03/19 02:59:39;;;;;;;7.57;2.85;;;1.60;99.90;;;;;;5002159;28;20034;-66
2021/03/19 03:02:05;;;;;;;12.98;3.08;;;1.60;99.90;;;;;;4995995;28;20158;-66
2021/03/19 03:04:30;;;;;;;13.10;2.90;;;1.80;99.90;;;;;;4997514;28;20084;-65
2021/03/19 03:06:58;;;;;;;16.92;2.60;;;1.60;99.90;;;;;;5002215;28;20044;-66
2021/03/19 03:09:28;;;;;;;11.95;3.13;;;1.50;99.90;;;;;;4999122;28;20042;-66
2021/03/19 03:11:54;;;;;;;10.80;2.30;;;1.50;99.90;;;;;;5000005;28;20080;-66
2021/03/19 03:14:22;;;;;;;9.30;2.30;;;1.50;99.90;;;;;;5000565;28;20064;-66
2021/03/19 03:16:49;;;;;;;10.10;2.45;;;1.60;99.90;;;;;;5000014;28;20044;-66
2021/03/19 03:19:21;;;;;;;10.25;2.67;;;1.70;99.90;;;;;;4998247;28;20069;-66
2021/03/19 03:21:48;;;;;;;12.63;2.45;;;1.50;99.90;;;;;;4996888;28;20517;-66
2021/03/19 03:24:15;;;;;;;11.43;2.40;;;1.50;99.90;;;;;;4995809;28;20073;-66
2021/03/19 03:26:42;;;;;;;12.90;3.10;;;1.50;99.90;;;;;;4999547;28;20084;-66
2021/03/19 03:29:11;;;;;;;10.68;2.28;;;1.70;99.90;;;;;;4996969;28;20133;-65
2021/03/19 03:31:38;;;;;;;9.52;2.90;;;1.50;99.90;;;;;;4998820;28;20515;-66
2021/03/19 03:34:05;;;;;;;15.30;3.22;;;1.60;99.90;;;;;;4999739;28;20462;-66
2021/03/19 03:36:33;;;;;;;11.98;2.78;;;1.60;99.90;;;;;;4999636;28;20073;-66
2021/03/19 03:39:01;;;;;;;15.13;2.85;;;1.50;99.90;;;;;;5000116;28;20069;-66
2021/03/19 03:41:28;;;;;;;12.65;3.20;;;1.50;99.90;;;;;;4996799;28;20077;-66
2021/03/19 03:43:54;;;;;;;10.27;2.60;;;1.50;99.90;;;;;;5001255;28;20133;-66
2021/03/19 03:46:26;;;;;;;10.95;3.05;;;1.50;99.90;;;;;;4996872;28;20074;-65
2021/03/19 03:48:55;;;;;;;8.32;2.70;;;1.40;99.90;;;;;;4998758;28;20073;-66
2021/03/19 03:51:23;;;;;;;11.27;3.28;;;1.50;99.90;;;;;;4999530;28;20077;-66
2021/03/19 03:53:49;;;;;;;12.52;3.10;;;1.40;99.90;;;;;;4998025;28;20085;-65
2021/03/19 03:56:16;;;;;;;11.32;3.10;;;1.40;99.90;;;;;;5000031;28;20085;-66
2021/03/19 03:58:43;;;;;;;15.40;3.17;;;1.40;99.90;;;;;;4976461;28;20136;-66
2021/03/19 04:01:10;;;;;;;11.27;3.30;;;1.40;99.90;;;;;;4998929;28;20081;-66
2021/03/19 04:03:37;;;;;;;12.57;2.80;;;1.40;99.90;;;;;;4998088;28;20066;-66
2021/03/19 04:06:04;;;;;;;10.02;3.05;;;1.40;99.90;;;;;;4997516;28;20130;-66
2021/03/19 04:08:31;;;;;;;11.65;3.30;;;1.40;99.90;;;;;;4996844;28;20520;-65
2021/03/19 04:11:00;;;;;;;8.10;2.75;;;1.40;99.90;;;;;;4998429;28;20074;-66
2021/03/19 04:13:28;;;;;;;8.98;3.08;;;1.40;99.90;;;;;;4994806;28;20093;-66
2021/03/19 04:15:55;;;;;;;9.20;2.65;;;1.40;99.90;;;;;;4999928;28;20464;-66
2021/03/19 04:18:22;;;;;;;19.35;3.03;;;1.40;99.90;;;;;;4999723;28;20074;-66
2021/03/19 04:20:52;;;;;;;9.45;2.30;;;1.40;99.90;;;;;;4999539;28;20077;-65
2021/03/19 04:23:19;;;;;;;9.02;2.50;;;1.40;99.90;;;;;;4996162;28;20081;-66
2021/03/19 04:25:45;;;;;;;12.40;3.20;;;1.40;99.90;;;;;;4994446;28;20074;-66
2021/03/19 04:28:19;;;;;;;17.17;2.92;;;1.50;99.90;;;;;;4997140;28;20618;-65
2021/03/19 04:30:46;;;;;;;9.02;3.60;;;1.40;99.90;;;;;;4981033;28;20085;-66
2021/03/19 04:33:16;;;;;;;8.73;2.70;;;1.50;99.90;;;;;;4998295;28;20077;-66
2021/03/19 04:35:42;;;;;;;9.68;2.72;;;1.40;99.90;;;;;;4997446;28;20472;-65
2021/03/19 04:38:13;;;;;;;8.15;2.88;;;1.30;99.90;;;;;;4995396;28;20069;-66
2021/03/19 04:40:44;;;;;;;14.55;3.55;;;1.30;99.90;;;;;;4996204;28;20077;-66
2021/03/19 04:43:11;;;;;;;9.82;3.50;;;1.30;99.90;;;;;;4993758;28;20125;-65
2021/03/19 04:45:39;;;;;;;13.52;3.10;;;1.30;99.90;;;;;;4994788;28;20089;-65
2021/03/19 04:48:06;;;;;;;15.63;3.78;;;1.20;99.90;;;;;;4996410;28;20488;-66
2021/03/19 04:50:33;;;;;;;9.77;3.70;;;1.30;99.90;;;;;;4996405;28;20078;-65
2021/03/19 04:52:59;;;;;;;17.58;3.72;;;1.50;99.90;;;;;;4998118;28;20082;-66
2021/03/19 04:55:26;;;;;;;7.47;3.50;;;1.20;99.90;;;;;;4994922;28;20073;-65
2021/03/19 04:57:52;;;;;;;12.07;3.55;;;1.40;99.90;;;;;;4996860;28;20070;-65
2021/03/19 05:00:19;;;;;;;9.07;2.90;;;1.30;99.90;;;;;;4994425;28;20088;-66
2021/03/19 05:02:48;;;;;;;12.10;2.60;;;1.30;99.90;;;;;;4997283;28;20073;-66
2021/03/19 05:05:24;;;;;;;8.43;2.80;;;1.20;99.90;;;;;;4997281;28;20085;-66
2021/03/19 05:07:51;;;;;;;12.95;3.25;;;1.20;99.90;;;;;;4995047;28;20080;-66
2021/03/19 05:10:20;;;;;;;9.98;2.67;;;1.30;99.90;;;;;;5000456;28;20077;-66
2021/03/19 05:12:46;;;;;;;9.23;2.80;;;1.20;99.90;;;;;;4998314;28;20157;-65
2021/03/19 05:15:13;;;;;;;7.50;2.30;;;1.40;99.90;;;;;;4997129;28;20078;-65
2021/03/19 05:17:40;;;;;;;12.50;2.45;;;1.20;99.90;;;;;;4993527;28;20080;-66
2021/03/19 05:20:09;;;;;;;10.40;2.58;;;1.10;99.90;;;;;;4997489;28;20133;-65
2021/03/19 05:22:35;;;;;;;8.25;2.47;;;1.20;99.90;;;;;;4996421;28;20448;-66
2021/03/19 05:25:03;;;;;;;11.00;3.00;;;1.20;99.90;;;;;;4997407;28;20500;-66
2021/03/19 05:27:30;;;;;;;10.35;2.75;;;1.10;99.90;;;;;;4998148;28;20121;-65
2021/03/19 05:29:57;;;;;;;11.95;2.58;;;1.10;99.90;;;;;;4998721;28;20081;-65
2021/03/19 05:32:24;;;;;;;10.43;3.17;;;1.10;99.90;;;;;;4994328;28;20779;-65
2021/03/19 05:34:51;;;;;;;7.57;2.45;;;1.10;99.90;;;;;;4997974;28;20081;-66
2021/03/19 05:37:18;;;;;;;22.60;3.90;;;1.10;99.90;;;;;;4993731;28;20149;-66
2021/03/19 05:39:44;;;;;;;15.75;3.88;;;1.10;99.90;;;;;;4996284;28;20088;-66
2021/03/19 05:42:32;;;;;;;8.85;2.55;;;1.10;99.90;;;;;;4994786;28;20135;-66
2021/03/19 05:45:02;;;;;;;14.70;3.47;;;1.10;99.90;;;;;;4994496;28;20096;-66
2021/03/19 05:47:29;;;;;;;8.73;3.95;;;1.00;99.90;;;;;;4997265;28;20085;-66
2021/03/19 05:49:59;;;;;;;11.38;3.20;;;1.10;99.90;;;;;;4983693;28;21141;-66
2021/03/19 05:52:35;;;;;;;10.82;3.25;;;1.10;99.90;;;;;;4997924;28;20140;-65
2021/03/19 05:55:30;;;;;;;;;;;1.20;99.90;;;;;;5001742;28;20222;-65
2021/03/19 05:57:58;;;;;;;8.80;2.97;;;1.10;99.90;;;;;;4988410;28;19960;-65
2021/03/19 06:00:27;;;;;;;12.35;3.25;;;1.20;99.90;;;;;;5002051;28;20069;-66
2021/03/19 06:02:54;;;;;;;11.20;2.97;;;1.20;99.90;;;;;;4990422;28;20481;-66
2021/03/19 06:05:26;;;;;;;11.50;4.07;;;1.20;99.90;;;;;;4998913;28;20070;-66
2021/03/19 06:08:02;;;;;;;15.15;3.83;;;1.30;99.90;;;;;;5001781;28;20081;-66
2021/03/19 06:10:37;;;;;;;7.57;2.90;;;1.50;99.90;;;;;;4999405;28;20144;-66
2021/03/19 06:13:25;;;;;;;11.85;3.10;;;1.50;99.90;;;;;;4998831;28;20077;-65
2021/03/19 06:15:55;;;;;;;14.55;3.72;;;1.60;99.90;;;;;;4998973;28;20073;-65
2021/03/19 06:18:21;;;;;;;17.55;3.88;;;1.90;99.90;;;;;;4997810;28;20081;-66
2021/03/19 06:21:06;;;;;;;7.18;3.40;;;2.20;99.90;;;;;;4997323;28;20129;-66
2021/03/19 06:23:33;;;;;;;12.00;3.10;;;2.50;99.90;;;;;;4999166;28;20081;-66
2021/03/19 06:26:29;;;;;;;14.15;3.53;;;2.90;99.90;;;;;;4986771;28;20457;-66
2021/03/19 06:29:21;;;;;;;11.57;2.83;;;3.20;99.90;;;;;;4990869;28;20045;-66
2021/03/19 06:32:21;;;;;;;13.00;2.50;;;3.60;99.90;;;;;;4987943;28;20053;-66
2021/03/19 06:34:59;;;;;;;15.70;2.58;;;3.90;99.90;;;;;;5002173;28;20034;-66
2021/03/19 06:37:48;;;;;;;12.40;2.97;;;4.30;99.50;;;;;;4989998;28;20042;-66
2021/03/19 06:40:38;;;;;;;10.77;2.15;;;4.60;98.90;;;;;;4987577;28;20054;-66
2021/03/19 06:43:27;;;;;;;10.05;2.45;;;4.80;98.50;;;;;;5004156;28;20129;-66
2021/03/19 06:46:26;;;;;;;7.75;2.50;;;5.10;98.20;;;;;;4983067;28;20120;-66
2021/03/19 06:49:12;;;;;;;13.73;2.70;;;5.30;97.50;;;;;;4987843;28;20552;-66
2021/03/19 06:52:23;;;;;;;13.93;2.72;;;5.70;97.60;;;;;;4984632;28;20064;-66
2021/03/19 06:55:35;;;;;;;10.07;2.55;;;5.80;96.40;;;;;;4984281;28;20128;-66
2021/03/19 06:58:49;;;;;;;10.18;2.22;;;5.90;96.10;;;;;;4985286;28;20069;-66
2021/03/19 07:01:38;;;;;;;10.40;2.53;;;6.10;96.20;;;;;;4984738;28;20405;-66
2021/03/19 07:05:04;;;;;;;10.23;2.95;;;6.10;95.80;;;;;;4983399;28;20101;-66
2021/03/19 07:08:08;;;;;;;8.30;2.60;;;5.90;96.10;;;;;;4954965;28;20050;-66
2021/03/19 07:11:02;;;;;;;10.75;2.78;;;5.80;96.50;;;;;;4981589;28;20108;-66
2021/03/19 07:14:15;;;;;;;13.55;3.45;;;5.70;96.50;;;;;;4984355;28;20551;-66
2021/03/19 07:17:24;;;;;;;33.42;4.45;;;5.70;96.80;;;;;;4982923;28;20042;-66
2021/03/19 07:20:14;;;;;;;10.07;3.45;;;5.60;96.70;;;;;;4997481;28;20044;-66
2021/03/19 07:22:48;;;;;;;10.02;3.10;;;5.50;96.90;;;;;;4998719;28;20042;-66
2021/03/19 07:25:59;;;;;;;9.07;2.85;;;5.50;97.30;;;;;;4982626;28;20042;-66
2021/03/19 07:29:09;;;;;;;8.68;2.90;;;5.50;97.20;;;;;;4986467;28;20484;-66
2021/03/19 07:34:34;;;;;;;9.23;3.00;;;5.50;97.10;;;;;;5104587;27;20101;-66
2021/03/19 07:37:18;;;;;;;10.63;3.78;;;5.50;97.10;;;;;;5081033;28;20051;-66
2021/03/19 07:40:28;;;;;;;10.00;3.70;;;5.30;97.30;;;;;;5102434;28;20711;-66
2021/03/19 07:43:41;;;;;;;10.45;4.43;;;5.20;97.90;;;;;;5085963;28;20139;-66
2021/03/19 07:46:48;;;;;;;13.18;4.72;;;5.10;98.60;;;;;;5116194;27;20040;-66
2021/03/19 07:49:51;;;;;;;6.60;3.15;;;5.00;98.90;;;;;;5083826;28;21706;-66
2021/03/19 07:52:51;;;;;;;13.60;4.35;;;4.90;98.80;;;;;;5086100;28;20051;-66
2021/03/19 07:55:55;;;;;;;12.52;4.38;;;4.90;98.80;;;;;;5088561;28;20044;-66
2021/03/19 07:58:41;;;;;;;10.30;3.72;;;4.90;99.20;;;;;;5088336;28;20043;-66
2021/03/19 08:01:47;;;;;;;10.25;3.90;;;4.90;99.00;;;;;;5087194;28;20055;-66
2021/03/19 08:04:41;;;;;;;12.48;4.00;;;4.90;98.00;;;;;;5089636;28;20040;-66
2021/03/19 08:07:42;;;;;;;11.95;4.13;;;4.90;98.70;;;;;;5085656;28;21310;-66
2021/03/19 08:10:39;;;;;;;7.63;3.33;;;5.00;97.70;;;;;;5113894;27;20086;-66
2021/03/19 08:14:03;;;;;;;8.77;3.63;;;5.00;98.00;;;;;;5087014;28;21296;-66
2021/03/19 08:17:01;;;;;;;7.70;3.55;;;5.10;97.70;;;;;;5070972;28;20050;-66
2021/03/19 08:20:17;;;;;;;5.82;3.50;;;5.10;97.60;;;;;;5102691;27;20054;-66
2021/03/19 08:23:11;;;;;;;5.25;3.20;;;5.00;97.20;;;;;;5084725;28;20096;-66
2021/03/19 08:25:57;;;;;;;15.02;3.97;;;5.20;97.30;;;;;;5087358;28;20174;-66
2021/03/19 08:28:51;;;;;;;5.57;2.72;;;5.30;96.20;;;;;;5086660;28;20047;-66
2021/03/19 08:31:42;;;;;;;5.03;2.60;;;5.50;96.40;;;;;;5088514;28;20118;-66
2021/03/19 08:34:41;;;;;;;8.68;2.88;;;5.60;96.30;;;;;;5084473;28;20051;-66
2021/03/19 08:37:55;;;;;;;5.00;2.38;;;5.40;94.60;;;;;;5088980;28;20036;-66
2021/03/19 08:41:00;;;;;;;3.78;2.55;;;5.50;94.30;;;;;;5086025;28;20619;-66
2021/03/19 08:43:54;;;;;;;7.28;3.72;;;5.90;94.60;;;;;;5080693;28;20048;-66
2021/03/19 08:47:03;;;;;;;3.83;2.35;;;6.10;94.70;;;;;;5071004;28;20072;-66
2021/03/19 08:49:55;;;;;;;5.28;2.20;;;6.20;94.40;;;;;;5048235;28;20044;-66
2021/03/19 08:52:59;;;;;;;5.63;2.58;;;6.20;93.50;;;;;;5073937;28;20075;-66
2021/03/19 08:56:08;;;;;;;5.38;2.08;;;6.40;92.90;;;;;;5077116;28;20063;-66
2021/03/19 08:58:55;;;;;;;5.47;1.75;;;6.50;92.20;;;;;;5111361;27;20501;-66
2021/03/19 09:01:47;;;;;;;3.65;1.67;;;6.60;92.00;;;;;;5100273;27;20064;-66
2021/03/19 09:04:52;;;;;;;4.80;1.60;;;6.70;90.50;;;;;;5072948;28;20036;-66
2021/03/19 09:07:23;;;;;;;4.53;1.88;;;7.00;90.50;;;;;;5069960;28;20086;-67
2021/03/19 09:10:18;;;;;;;5.95;2.35;;;7.20;90.90;;;;;;5072544;28;20064;-67
2021/03/19 09:13:08;;;;;;;3.28;1.73;;;7.10;90.80;;;;;;5068692;28;21315;-66
2021/03/19 09:15:46;;;;;;;6.38;2.13;;;7.40;91.00;;;;;;5075614;28;20044;-66
2021/03/19 09:18:35;;;;;;;6.65;1.70;;;7.40;88.40;;;;;;5071977;28;20032;-66
2021/03/19 09:21:37;;;;;;;7.82;1.70;;;7.40;88.60;;;;;;5071579;28;20144;-66
2021/03/19 09:24:24;;;;;;;5.90;1.90;;;7.30;86.30;;;;;;5072165;28;20145;-66
2021/03/19 09:27:31;;;;;;;4.80;1.80;;;7.00;86.20;;;;;;5071177;28;20075;-66
2021/03/19 09:30:36;;;;;;;3.47;1.45;;;7.40;89.60;;;;;;5099666;27;20047;-66
2021/03/19 09:33:48;;;;;;;4.53;1.80;;;7.50;89.10;;;;;;5069105;28;20032;-66
2021/03/19 09:37:00;;;;;;;4.95;1.60;;;7.50;85.90;;;;;;5059411;28;21882;-66
2021/03/19 09:39:46;;;;;;;3.80;1.63;;;7.60;90.30;;;;;;5074298;28;20055;-66
2021/03/19 09:42:21;;;;;;;3.05;1.63;;;7.50;87.20;;;;;;5073900;28;20060;-66
2021/03/19 09:45:01;;;;;;;4.15;1.65;;;7.70;89.00;;;;;;5072674;28;20056;-66
2021/03/19 09:48:01;;;;;;;4.13;1.52;;;7.60;86.10;;;;;;5099371;27;20113;-66
2021/03/19 09:50:31;;;;;;;4.00;2.40;;;8.30;86.90;;;;;;5071849;28;20048;-66
2021/03/19 09:53:02;;;;;;;2.95;1.27;;;7.80;85.80;;;;;;5074382;28;20055;-66
2021/03/19 09:55:57;;;;;;;4.20;1.60;;;7.80;79.80;;;;;;5072427;28;20036;-66
2021/03/19 09:58:39;;;;;;;3.22;1.30;;;7.50;80.40;;;;;;5070362;28;21024;-66
2021/03/19 10:01:12;;;;;;;2.08;0.90;;;7.60;79.60;;;;;;5091089;28;20043;-66
2021/03/19 10:03:53;;;;;;;2.78;0.98;;;7.70;82.60;;;;;;5069438;28;20060;-66
2021/03/19 10:06:45;;;;;;;4.32;0.90;;;7.90;84.60;;;;;;5098156;27;20052;-66
2021/03/19 10:09:18;;;;;;;2.67;0.95;;;7.90;84.20;;;;;;5070405;28;20055;-66
2021/03/19 10:12:21;;;;;;;2.05;0.88;;;8.10;85.40;;;;;;5072587;28;20045;-66
2021/03/19 10:15:18;;;;;;;3.85;0.80;;;8.20;86.30;;;;;;5058076;28;20459;-66
2021/03/19 10:18:06;;;;;;;1.10;0.73;;;8.30;80.90;;;;;;5096841;27;20104;-66
2021/03/19 10:20:55;;;;;;;1.40;0.70;;;8.40;79.70;;;;;;5071866;28;20063;-66
2021/03/19 10:23:51;;;;;;;2.22;0.75;;;8.30;76.10;;;;;;5068286;28;20054;-66
2021/03/19 10:26:51;;;;;;;;;;;8.30;81.80;;;;;;5070591;28;20032;-66
2021/03/19 10:29:41;;;;;;;2.80;0.40;;;8.50;77.50;;;;;;5056775;28;19924;-66
2021/03/19 10:32:26;;;;;;;2.92;0.57;;;8.30;74.70;;;;;;5066739;28;20055;-66
2021/03/19 10:35:19;;;;;;;3.47;0.82;;;8.50;81.40;;;;;;5069116;28;20090;-66
2021/03/19 10:38:28;;;;;;;1.45;0.30;;;8.50;74.90;;;;;;5070893;28;20056;-66
2021/03/19 10:41:22;;;;;;;3.22;0.80;;;8.50;77.40;;;;;;5070969;28;20044;-67
2021/03/19 10:44:09;;;;;;;1.42;0.40;;;8.20;76.20;;;;;;5072110;28;20093;-66
2021/03/19 10:46:54;;;;;;;2.00;0.60;;;8.10;71.80;;;;;;5071311;28;20110;-66
2021/03/19 10:49:31;;;;;;;0.70;0.32;;;8.00;82.50;;;;;;5077008;28;20058;-66
2021/03/19 10:52:16;;;;;;;2.88;0.60;;;8.30;78.30;;;;;;5084865;28;20764;-66
2021/03/19 10:54:44;;;;;;;1.55;0.80;;;8.40;79.20;;;;;;5081708;28;20415;-66
2021/03/19 10:57:34;;;;;;;2.67;0.80;;;8.50;81.20;;;;;;5082301;28;20058;-66
2021/03/19 11:00:37;;;;;;;1.50;0.50;;;8.50;76.20;;;;;;5080201;28;20811;-66
2021/03/19 11:03:06;;;;;;;2.33;0.55;;;8.60;77.60;;;;;;5080782;28;20055;-66
2021/03/19 11:05:53;;;;;;;1.25;0.32;;;8.20;78.50;;;;;;5082902;28;20050;-66
2021/03/19 11:08:19;;;;;;;1.88;0.77;;;8.10;73.20;;;;;;5083732;28;20489;-66
2021/03/19 11:10:49;;;;;;;2.05;0.80;;;8.30;78.50;;;;;;5083046;28;20044;-66
2021/03/19 11:13:15;;;;;;;3.67;0.60;;;8.30;74.70;;;;;;5080485;28;20051;-66
2021/03/19 11:15:47;;;;;;;1.65;0.63;;;8.50;78.20;;;;;;5082644;28;20044;-66
2021/03/19 11:18:22;;;;;;;0.68;0.40;;;8.20;76.10;;;;;;5080376;28;20044;-66
2021/03/19 11:21:23;;;;;;;2.60;0.50;;;8.20;76.80;;;;;;5080093;28;20092;-66
2021/03/19 11:24:19;;;;;;;1.05;0.68;;;8.10;79.70;;;;;;5082633;28;20051;-66
2021/03/19 11:26:58;;;;;;;1.75;0.63;;;8.30;82.30;;;;;;5082147;28;20063;-66
2021/03/19 11:29:46;;;;;;;1.80;0.73;;;8.60;82.80;;;;;;5082746;28;20067;-66
2021/03/19 11:32:12;;;;;;;2.35;0.35;;;8.40;75.40;;;;;;5084452;28;20542;-66
2021/03/19 11:35:10;;;;;;;;;;;8.20;71.00;;;;;;5082831;28;20379;-66
2021/03/19 11:37:40;;;;;;;3.63;0.80;;;8.50;74.80;;;;;;5086125;28;20281;-66
2021/03/19 11:40:37;;;;;;;2.67;0.60;;;8.70;82.60;;;;;;5084975;28;20044;-66
2021/03/19 11:43:06;;;;;;;1.27;0.57;;;8.90;77.20;;;;;;5079078;28;20088;-66
2021/03/19 11:45:38;;;;;;;0.77;0.50;;;9.00;75.40;;;;;;5079567;28;20048;-66
2021/03/19 11:48:23;;;;;;;1.13;0.40;;;9.00;76.50;;;;;;5082339;28;20077;-66
2021/03/19 11:51:14;;;;;;;1.70;0.77;;;8.80;73.60;;;;;;5084237;28;20055;-66
2021/03/19 11:53:40;;;;;;;1.67;0.40;;;8.60;78.60;;;;;;5077041;28;20056;-66
2021/03/19 11:56:06;;;;;;;1.17;0.35;;;8.60;69.00;;;;;;5086450;28;20028;-66
2021/03/19 11:58:34;;;;;;;1.15;0.50;;;8.70;70.30;;;;;;5085628;28;20036;-66
2021/03/19 12:01:02;;;;;;;0.32;0.20;;;8.90;72.90;;;;;;5077680;28;20036;-66
2021/03/19 12:03:50;;;;;;;1.95;0.40;;;9.10;71.10;;;;;;5082493;28;20055;-66
2021/03/19 12:06:37;;;;;;;2.70;0.63;;;8.70;72.80;;;;;;5082458;28;20093;-66
2021/03/19 12:09:03;;;;;;;1.02;0.20;;;8.90;71.40;;;;;;5081091;28;20048;-66
2021/03/19 12:11:35;;;;;;;0.63;0.20;;;8.80;69.70;;;;;;5079323;28;20040;-66
2021/03/19 12:14:02;;;;;;;1.00;0.30;;;8.90;73.90;;;;;;5082323;28;20048;-66
2021/03/19 12:16:29;;;;;;;0.80;0.40;;;8.80;73.00;;;;;;5080335;28;20028;-66
2021/03/19 12:18:56;;;;;;;2.08;0.73;;;8.80;72.40;;;;;;5083756;28;20040;-66
2021/03/19 12:21:22;;;;;;;1.52;0.30;;;8.60;70.70;;;;;;5087661;28;20040;-66
2021/03/19 12:23:49;;;;;;;0.32;0.15;;;8.70;72.80;;;;;;5088405;28;20097;-66
2021/03/19 12:26:34;;;;;;;;;;;8.60;71.80;;;;;;5085912;28;20124;-66
2021/03/19 12:29:00;;;;;;;0.55;0.35;;;8.60;69.40;;;;;;5088971;28;19916;-66
2021/03/19 12:31:27;;;;;;;3.03;0.30;;;8.80;73.10;;;;;;5085461;28;20040;-66
2021/03/19 12:33:52;;;;;;;1.17;0.30;;;9.00;75.20;;;;;;5083743;28;20037;-66
2021/03/19 12:36:38;;;;;;;1.25;0.20;;;9.30;70.10;;;;;;5084138;28;20151;-66
2021/03/19 12:39:04;;;;;;;0.82;0.30;;;9.50;66.00;;;;;;5087044;28;20708;-66
2021/03/19 12:41:50;;;;;;;;;;;9.50;75.00;;;;;;5081986;28;20666;-66
2021/03/19 12:44:17;;;;;;;1.27;0.20;;;9.50;70.20;;;;;;5087657;28;19931;-66
2021/03/19 12:46:44;;;;;;;1.25;0.30;;;9.40;70.70;;;;;;5086128;28;20422;-66
2021/03/19 12:49:29;;;;;;;;;;;9.40;70.80;;;;;;5083309;28;20059;-66
2021/03/19 12:52:15;;;;;;;0.80;0.20;;;9.30;70.80;;;;;;5083775;28;19928;-68
2021/03/19 12:54:41;;;;;;;1.23;0.20;;;9.40;74.70;;;;;;5087707;28;20430;-69
2021/03/19 12:57:06;;;;;;;2.05;0.20;;;9.60;72.50;;;;;;5084932;28;20037;-66
2021/03/19 12:59:32;;;;;;;1.45;0.20;;;9.70;68.80;;;;;;5087265;28;20533;-66
2021/03/19 13:01:58;;;;;;;0.57;0.20;;;9.40;66.40;;;;;;5088726;28;20481;-66
2021/03/19 13:04:24;;;;;;;0.50;0.20;;;8.80;63.90;;;;;;5089178;28;20047;-66
2021/03/19 13:06:50;;;;;;;0.93;0.10;;;9.20;73.10;;;;;;5089765;28;20060;-66
2021/03/19 13:09:16;;;;;;;0.30;0.20;;;9.40;70.00;;;;;;5089016;28;20118;-66
2021/03/19 13:11:42;;;;;;;0.82;0.20;;;9.50;75.10;;;;;;5085426;28;20147;-66
2021/03/19 13:14:08;;;;;;;0.52;0.20;;;9.40;68.10;;;;;;5088863;28;20043;-66
2021/03/19 13:16:35;;;;;;;0.50;0.20;;;9.30;70.60;;;;;;5085026;28;20739;-66
2021/03/19 13:19:01;;;;;;;1.27;0.43;;;9.10;68.10;;;;;;5084036;28;20044;-66
2021/03/19 13:21:28;;;;;;;0.88;0.20;;;9.30;69.40;;;;;;5084543;28;20161;-66
2021/03/19 13:23:54;;;;;;;0.40;0.20;;;9.10;69.40;;;;;;5084640;28;20539;-66
2021/03/19 13:26:20;;;;;;;1.35;0.30;;;8.90;65.30;;;;;;5088235;28;20044;-66
2021/03/19 13:28:45;;;;;;;2.38;0.20;;;9.10;68.80;;;;;;5086152;28;20050;-66
2021/03/19 13:31:12;;;;;;;2.53;0.10;;;9.10;69.20;;;;;;5085267;28;20401;-66
2021/03/19 13:33:38;;;;;;;2.28;0.17;;;9.10;66.70;;;;;;5083744;28;20040;-66
2021/03/19 13:36:24;;;;;;;1.10;0.20;;;8.90;66.30;;;;;;5087583;28;20048;-66
2021/03/19 13:38:49;;;;;;;1.80;0.20;;;8.90;70.40;;;;;;5090513;28;20052;-66
2021/03/19 13:41:15;;;;;;;2.03;0.10;;;9.10;74.30;;;;;;5086877;28;20074;-66
2021/03/19 13:43:42;;;;;;;0.60;0.20;;;9.20;70.50;;;;;;5089231;28;20046;-66
2021/03/19 13:46:12;;;;;;;0.35;0.10;;;9.30;69.40;;;;;;5086217;28;20462;-66
2021/03/19 13:48:39;;;;;;;0.82;0.13;;;9.40;69.60;;;;;;5084310;28;20036;-66
2021/03/19 13:51:08;;;;;;;0.60;0.15;;;9.40;69.20;;;;;;5084052;28;20426;-66
2021/03/19 13:53:34;;;;;;;0.20;0.10;;;9.50;66.10;;;;;;5086633;28;20042;-66
2021/03/19 13:56:01;;;;;;;0.50;0.13;;;9.60;71.40;;;;;;5084518;28;20048;-66
2021/03/19 13:58:30;;;;;;;1.25;0.13;;;9.60;69.30;;;;;;5082181;28;20044;-66